Time;durP1;ratioP1;P1;durP2;ratioP2;P2;SDS_P1;SDS_P2;PMS_P1;PMS_P2;Temp;Humidity;BMP_temperature;BMP_pressure;BME280_temperature;BME280_humidity;BME280_pressure;Samples;Min_cycle;Max_cycle;Signal;HPM_P1;HPM_P2
2023/04/24 00:00:48;;;;;;;16.90;7.80;;;;;;;15.68;47.01;98210.33;223498;182;138914;-64
2023/04/24 00:06:02;;;;;;;16.50;8.70;;;;;;;15.59;47.53;98209.56;223453;183;138011;-63
2023/04/24 00:11:05;;;;;;;12.80;7.90;;;;;;;15.50;47.98;98203.45;223421;187;145952;-63
2023/04/24 00:16:08;;;;;;;18.40;8.90;;;;;;;15.36;48.51;98200.44;223496;191;139253;-63
2023/04/24 00:21:12;;;;;;;15.40;8.30;;;;;;;15.29;48.46;98201.62;223500;182;136808;-62
2023/04/24 00:26:15;;;;;;;15.90;8.90;;;;;;;15.21;49.31;98198.12;223480;183;146282;-63
2023/04/24 00:31:18;;;;;;;15.30;8.70;;;;;;;15.14;50.09;98198.08;223417;183;138489;-63
2023/04/24 00:36:22;;;;;;;15.60;9.40;;;;;;;15.04;50.54;98189.59;223555;183;137557;-62
2023/04/24 00:41:25;;;;;;;13.60;9.40;;;;;;;14.97;50.97;98187.52;223481;182;156762;-63
2023/04/24 00:46:28;;;;;;;20.70;9.40;;;;;;;14.84;51.45;98186.63;223408;216;138910;-63
2023/04/24 00:51:34;;;;;;;21.00;10.10;;;;;;;14.73;51.80;98180.90;223482;182;137057;-68
2023/04/24 00:56:37;;;;;;;22.40;9.90;;;;;;;14.67;52.26;98180.90;223501;184;145823;-64
2023/04/24 01:01:41;;;;;;;24.00;9.40;;;;;;;14.62;52.68;98176.13;223517;182;138570;-64
2023/04/24 01:06:45;;;;;;;18.20;9.00;;;;;;;14.53;52.90;98169.28;223412;187;138072;-66
2023/04/24 01:11:49;;;;;;;16.70;9.30;;;;;;;14.42;53.07;98171.91;223406;187;145324;-64
2023/04/24 01:16:52;;;;;;;14.80;9.40;;;;;;;14.35;53.18;98166.13;223385;188;140346;-66
2023/04/24 01:21:58;;;;;;;14.90;9.30;;;;;;;14.27;53.72;98169.53;223371;183;138323;-65
2023/04/24 01:27:02;;;;;;;17.70;10.00;;;;;;;14.17;53.85;98166.52;223407;183;159099;-65
2023/04/24 01:32:05;;;;;;;25.90;10.30;;;;;;;14.06;53.99;98162.19;223340;187;139028;-66
2023/04/24 01:37:08;;;;;;;20.10;10.60;;;;;;;13.96;53.93;98153.05;223366;183;137480;-64
2023/04/24 01:42:12;;;;;;;20.70;10.30;;;;;;;13.88;54.39;98150.62;223416;184;145371;-63
2023/04/24 01:47:16;;;;;;;16.90;9.80;;;;;;;13.79;54.42;98145.66;223417;182;138454;-63
2023/04/24 01:52:19;;;;;;;16.10;10.00;;;;;;;13.71;54.38;98143.20;223477;194;137078;-63
2023/04/24 01:57:23;;;;;;;14.10;9.70;;;;;;;13.65;54.74;98138.19;223413;183;147281;-64
2023/04/24 02:02:29;;;;;;;;;;;;;;;13.55;54.71;98133.05;223453;182;138835;-62
2023/04/24 02:07:33;;;;;;;15.80;10.00;;;;;;;13.45;54.84;98129.25;223477;182;131730;-62
2023/04/24 02:12:36;;;;;;;15.70;9.50;;;;;;;13.42;54.88;98123.15;223449;182;147239;-63
2023/04/24 02:17:40;;;;;;;15.50;10.00;;;;;;;13.40;55.32;98119.07;223347;184;138578;-62
2023/04/24 02:22:43;;;;;;;15.40;10.30;;;;;;;13.31;55.43;98112.38;223454;206;137802;-63
2023/04/24 02:27:46;;;;;;;14.20;9.00;;;;;;;13.26;55.60;98110.98;223408;182;147130;-64
2023/04/24 02:32:49;;;;;;;16.10;9.90;;;;;;;13.23;55.79;98107.87;223383;183;138076;-64
2023/04/24 02:37:53;;;;;;;17.10;10.20;;;;;;;13.17;56.06;98095.90;223531;183;137400;-64
2023/04/24 02:42:58;;;;;;;102.30;63.40;;;;;;;13.12;56.46;98092.24;223421;182;147178;-63
2023/04/24 02:48:02;;;;;;;113.80;85.00;;;;;;;13.05;56.50;98093.96;223403;183;138717;-63
2023/04/24 02:53:06;;;;;;;23.00;12.90;;;;;;;12.99;56.42;98088.73;223461;184;138784;-64
2023/04/24 02:58:10;;;;;;;15.70;9.80;;;;;;;12.92;56.10;98082.57;223450;183;147953;-65
2023/04/24 03:03:16;;;;;;;15.00;9.50;;;;;;;12.78;55.99;98078.98;223402;183;140522;-65
2023/04/24 03:08:20;;;;;;;16.30;10.10;;;;;;;12.70;55.94;98083.27;223488;183;136634;-64
2023/04/24 03:13:24;;;;;;;16.80;9.70;;;;;;;12.67;56.17;98085.26;223408;182;147382;-64
2023/04/24 03:18:27;;;;;;;23.20;9.80;;;;;;;12.61;56.22;98084.07;223370;182;138931;-65
2023/04/24 03:25:28;;;;;;;29.50;14.60;;;;;;;12.51;57.05;98083.81;221920;193;666381;-67
2023/04/24 03:30:31;;;;;;;25.60;10.40;;;;;;;12.46;56.85;98082.84;223395;183;136211;-67
2023/04/24 03:35:36;;;;;;;26.30;10.50;;;;;;;12.42;56.55;98081.73;223300;184;143247;-67
2023/04/24 03:40:43;;;;;;;19.70;10.30;;;;;;;12.40;56.71;98085.34;223471;183;138426;-67
2023/04/24 03:46:09;;;;;;;25.30;10.60;;;;;;;12.33;57.14;98086.27;223395;182;136226;-65
2023/04/24 03:51:16;;;;;;;19.60;10.50;;;;;;;12.26;56.95;98091.75;223469;181;144770;-64
2023/04/24 03:56:22;;;;;;;24.30;10.40;;;;;;;12.23;56.92;98090.45;223544;181;138430;-64
2023/04/24 04:01:25;;;;;;;24.90;10.70;;;;;;;12.21;57.02;98092.61;223525;182;136591;-66
2023/04/24 04:06:38;;;;;;;25.20;12.30;;;;;;;12.23;57.12;98095.27;223517;181;144007;-66
2023/04/24 04:11:42;;;;;;;21.20;11.00;;;;;;;12.18;57.21;98092.84;223669;181;138453;-65
2023/04/24 04:16:45;;;;;;;19.90;10.30;;;;;;;12.14;57.25;98093.41;223668;181;137392;-65
2023/04/24 04:21:53;;;;;;;21.80;10.10;;;;;;;12.12;57.14;98091.70;223466;215;146172;-65
2023/04/24 04:27:03;;;;;;;22.80;10.40;;;;;;;12.15;57.19;98088.66;223501;181;149833;-65
2023/04/24 04:32:12;;;;;;;20.40;9.40;;;;;;;12.15;57.28;98083.65;223434;182;136664;-68
2023/04/24 04:37:16;;;;;;;18.70;8.40;;;;;;;12.15;57.09;98078.36;223465;181;145422;-66
2023/04/24 04:42:29;;;;;;;15.30;8.00;;;;;;;12.21;56.82;98072.84;223424;183;138557;-67
2023/04/24 04:47:32;;;;;;;18.00;8.30;;;;;;;12.27;56.30;98071.23;223450;181;137001;-69
2023/04/24 04:52:36;;;;;;;15.40;7.90;;;;;;;12.37;55.64;98072.06;223578;182;145963;-66
2023/04/24 04:58:00;;;;;;;13.90;8.00;;;;;;;12.51;55.17;98071.00;223583;182;140362;-67
2023/04/24 05:03:06;;;;;;;14.50;7.70;;;;;;;12.62;55.02;98071.17;223532;183;137127;-67
2023/04/24 05:08:26;;;;;;;14.70;7.60;;;;;;;12.78;54.80;98071.02;223515;181;145493;-62
2023/04/24 05:13:30;;;;;;;14.50;7.70;;;;;;;12.93;55.18;98068.46;223397;183;139788;-62
2023/04/24 05:18:48;;;;;;;13.30;7.50;;;;;;;13.08;55.44;98066.45;223504;182;140389;-63
2023/04/24 05:23:53;;;;;;;15.10;8.30;;;;;;;13.30;54.10;98068.59;223474;183;147389;-61
2023/04/24 05:29:19;;;;;;;28.60;9.60;;;;;;;13.55;52.92;98067.98;223463;182;141893;-61
2023/04/24 05:34:22;;;;;;;27.60;10.40;;;;;;;13.81;51.95;98063.27;223549;183;137495;-62
2023/04/24 05:39:30;;;;;;;26.00;11.50;;;;;;;14.07;51.90;98067.67;223507;182;145986;-61
2023/04/24 05:44:35;;;;;;;34.50;10.80;;;;;;;14.29;51.33;98065.35;223371;182;138457;-61
2023/04/24 05:49:37;;;;;;;21.30;9.10;;;;;;;14.44;50.61;98056.41;223533;182;137181;-63
2023/04/24 05:54:41;;;;;;;34.90;10.10;;;;;;;14.62;50.19;98056.50;223520;182;145893;-63
2023/04/24 05:59:45;;;;;;;28.40;9.70;;;;;;;14.79;49.73;98050.98;223403;182;140216;-63
2023/04/24 06:04:49;;;;;;;26.90;9.10;;;;;;;14.95;49.20;98042.48;223532;185;139414;-64
2023/04/24 06:09:53;;;;;;;24.90;8.60;;;;;;;15.11;49.19;98038.80;223512;181;145290;-65
2023/04/24 06:14:57;;;;;;;27.80;9.00;;;;;;;15.27;49.10;98032.81;223372;183;139179;-66
2023/04/24 06:20:25;;;;;;;34.70;8.40;;;;;;;15.43;49.27;98030.65;223463;183;136663;-67
2023/04/24 06:25:28;;;;;;;24.30;7.10;;;;;;;15.58;48.87;98028.70;223503;182;145283;-66
2023/04/24 06:30:31;;;;;;;22.80;8.80;;;;;;;15.72;48.67;98028.71;223536;183;141112;-62
2023/04/24 06:35:36;;;;;;;30.10;8.80;;;;;;;15.89;48.21;98026.66;223425;182;137265;-64
2023/04/24 06:40:40;;;;;;;18.90;6.40;;;;;;;16.08;46.77;98017.98;223554;181;145091;-65
2023/04/24 06:45:43;;;;;;;35.70;12.60;;;;;;;16.28;45.57;98013.84;223482;182;139859;-64
2023/04/24 06:50:48;;;;;;;17.10;6.60;;;;;;;16.42;45.31;98009.13;223540;181;138255;-65
2023/04/24 06:55:53;;;;;;;8.10;5.00;;;;;;;16.61;44.23;98006.84;223460;182;146280;-63
2023/04/24 07:00:56;;;;;;;5.80;3.80;;;;;;;16.79;42.55;98002.09;223398;181;139853;-64
2023/04/24 07:05:59;;;;;;;31.50;19.00;;;;;;;16.99;41.75;97998.44;223496;182;137793;-63
2023/04/24 07:11:02;;;;;;;41.70;29.40;;;;;;;17.33;45.37;97998.96;223498;182;147023;-64
2023/04/24 07:16:06;;;;;;;37.10;25.60;;;;;;;17.86;44.76;97995.59;223443;182;138798;-64
2023/04/24 07:21:09;;;;;;;29.10;20.70;;;;;;;18.26;43.43;97988.30;223548;181;139036;-64
2023/04/24 07:26:14;;;;;;;10.20;6.90;;;;;;;18.57;41.84;97981.45;223545;182;145822;-64
2023/04/24 07:31:17;;;;;;;13.00;6.80;;;;;;;18.65;40.49;97978.94;223549;182;138403;-65
2023/04/24 07:36:20;;;;;;;9.00;6.20;;;;;;;18.69;40.55;97973.64;223413;182;137471;-65
2023/04/24 07:41:24;;;;;;;8.30;3.70;;;;;;;18.82;40.03;97968.98;223511;182;145785;-64
2023/04/24 07:46:29;;;;;;;24.50;17.70;;;;;;;18.77;38.68;97970.41;223348;182;139161;-64
2023/04/24 07:51:37;;;;;;;;;;;;;;;18.83;39.09;97965.06;223554;181;137582;-64
2023/04/24 07:56:42;;;;;;;5.50;3.70;;;;;;;19.03;36.64;97963.75;223565;181;145409;-64
2023/04/24 08:01:45;;;;;;;5.60;3.80;;;;;;;19.15;35.91;97956.98;223400;182;138333;-64
2023/04/24 08:06:48;;;;;;;9.90;3.80;;;;;;;19.29;35.15;97950.82;223605;182;136915;-65
2023/04/24 08:11:53;;;;;;;11.00;3.90;;;;;;;19.36;35.58;97944.24;223466;181;145863;-64
2023/04/24 08:16:56;;;;;;;5.90;3.40;;;;;;;19.45;35.12;97942.65;223635;186;139154;-64
2023/04/24 08:21:59;;;;;;;6.90;3.60;;;;;;;19.55;34.64;97943.70;223584;182;138317;-64
2023/04/24 08:27:02;;;;;;;6.70;4.00;;;;;;;19.64;34.45;97939.04;223529;182;148276;-64
2023/04/24 08:32:06;;;;;;;6.20;4.10;;;;;;;19.73;34.80;97930.64;223490;182;139064;-64
2023/04/24 08:37:09;;;;;;;5.50;3.60;;;;;;;19.83;34.14;97925.59;223536;182;138321;-64
2023/04/24 08:42:14;;;;;;;4.90;3.30;;;;;;;19.97;33.92;97919.27;223522;182;145772;-63
2023/04/24 08:47:19;;;;;;;6.60;3.30;;;;;;;20.06;33.38;97916.34;223490;182;138228;-63
2023/04/24 08:52:22;;;;;;;5.10;3.20;;;;;;;20.24;32.74;97912.91;223540;182;136207;-64
2023/04/24 08:57:26;;;;;;;5.40;3.10;;;;;;;20.40;32.60;97912.58;223499;182;159120;-64
2023/04/24 09:02:30;;;;;;;4.90;3.20;;;;;;;20.56;31.79;97911.73;223518;182;140133;-63
2023/04/24 09:07:46;;;;;;;5.20;3.20;;;;;;;20.73;31.57;97904.09;223464;181;137231;-64
2023/04/24 09:12:50;;;;;;;9.30;2.90;;;;;;;20.85;31.42;97903.09;223428;182;145318;-64
2023/04/24 09:17:53;;;;;;;6.70;2.90;;;;;;;20.93;30.82;97897.31;223461;182;138187;-63
2023/04/24 09:22:58;;;;;;;6.70;3.00;;;;;;;20.99;30.26;97891.98;223546;182;137367;-64
2023/04/24 09:28:03;;;;;;;5.10;2.60;;;;;;;21.08;29.23;97890.22;223423;182;156401;-65
2023/04/24 09:33:13;;;;;;;6.50;3.20;;;;;;;21.19;29.57;97884.17;223515;182;138300;-64
2023/04/24 09:38:16;;;;;;;19.60;13.90;;;;;;;21.33;29.36;97880.19;223563;182;137887;-64
2023/04/24 09:43:19;;;;;;;13.80;8.30;;;;;;;21.44;30.11;97875.41;223414;182;145303;-64
2023/04/24 09:48:37;;;;;;;4.70;3.70;;;;;;;21.57;29.86;97871.86;223477;182;138421;-64
2023/04/24 09:53:45;;;;;;;7.10;3.60;;;;;;;21.63;31.60;97866.21;223472;181;137334;-64
2023/04/24 09:58:48;;;;;;;4.90;3.30;;;;;;;21.67;30.87;97862.04;223616;183;146910;-64
2023/04/24 10:03:51;;;;;;;6.30;3.10;;;;;;;21.85;30.70;97859.20;223470;182;140145;-64
2023/04/24 10:08:56;;;;;;;2.90;2.60;;;;;;;22.11;29.89;97855.90;223478;181;136671;-64
2023/04/24 10:13:59;;;;;;;5.00;2.90;;;;;;;22.34;29.71;97850.98;223501;183;145349;-64
2023/04/24 10:19:03;;;;;;;9.60;2.90;;;;;;;22.61;28.89;97841.80;223404;182;142059;-64
2023/04/24 10:24:07;;;;;;;4.40;2.90;;;;;;;22.68;27.84;97835.48;223493;181;137112;-64
2023/04/24 10:29:12;;;;;;;6.70;3.50;;;;;;;22.81;27.87;97832.66;223470;182;145962;-63
2023/04/24 10:34:24;;;;;;;13.90;11.80;;;;;;;22.84;28.19;97829.36;223346;182;139226;-64
2023/04/24 10:39:28;;;;;;;6.00;3.40;;;;;;;23.06;26.30;97828.14;223484;182;136726;-65
2023/04/24 10:44:36;;;;;;;5.80;3.30;;;;;;;23.22;26.47;97819.45;223537;182;146000;-66
2023/04/24 10:49:40;;;;;;;4.60;2.80;;;;;;;23.30;26.16;97816.95;223512;181;138942;-64
2023/04/24 10:54:47;;;;;;;10.30;2.80;;;;;;;22.97;25.54;97818.66;223476;181;137993;-64
2023/04/24 11:00:12;;;;;;;5.80;2.80;;;;;;;22.74;25.15;97812.76;223491;182;145502;-63
2023/04/24 11:05:17;;;;;;;4.90;2.50;;;;;;;22.67;25.42;97811.40;223508;182;138737;-63
2023/04/24 11:10:27;;;;;;;3.80;2.80;;;;;;;22.81;25.92;97807.73;223548;182;137122;-64
2023/04/24 11:15:30;;;;;;;4.00;2.90;;;;;;;22.85;26.23;97806.88;223550;182;146199;-65
2023/04/24 11:20:34;;;;;;;5.40;2.70;;;;;;;22.68;26.61;97804.59;223517;182;138847;-64
2023/04/24 11:25:37;;;;;;;4.80;2.90;;;;;;;22.72;27.08;97801.31;223581;182;136736;-64
2023/04/24 11:30:40;;;;;;;3.70;2.60;;;;;;;22.75;27.26;97797.48;223447;182;145394;-63
2023/04/24 11:35:43;;;;;;;5.60;2.90;;;;;;;22.90;26.82;97795.30;223295;183;139117;-64
2023/04/24 11:40:49;;;;;;;5.20;2.80;;;;;;;23.07;26.49;97784.71;223525;215;137228;-62
2023/04/24 11:45:52;;;;;;;3.70;2.40;;;;;;;23.21;26.89;97788.41;223356;182;146679;-65
2023/04/24 11:50:56;;;;;;;6.70;3.00;;;;;;;23.64;26.50;97780.27;223423;215;139216;-62
2023/04/24 11:56:03;;;;;;;9.60;3.10;;;;;;;23.71;25.51;97776.39;223399;182;137040;-64
2023/04/24 12:01:06;;;;;;;4.00;2.70;;;;;;;23.54;25.87;97773.52;223423;183;153546;-64
2023/04/24 12:06:11;;;;;;;7.20;2.80;;;;;;;23.72;26.06;97764.09;223356;182;140662;-63
2023/04/24 12:11:16;;;;;;;;;;;;;;;23.85;25.96;97756.91;223327;182;137738;-63
2023/04/24 12:16:19;;;;;;;3.20;2.90;;;;;;;23.73;26.06;97760.27;223397;182;147693;-63
2023/04/24 12:21:24;;;;;;;5.10;2.70;;;;;;;23.41;26.08;97755.43;223357;193;140421;-63
2023/04/24 12:26:28;;;;;;;5.10;2.90;;;;;;;23.21;25.44;97749.23;223311;182;137332;-64
2023/04/24 12:31:32;;;;;;;14.50;7.00;;;;;;;23.10;26.25;97744.39;223369;205;147781;-64
2023/04/24 12:36:35;;;;;;;9.20;3.40;;;;;;;22.89;26.19;97742.56;223388;183;139573;-64
2023/04/24 12:41:50;;;;;;;8.10;3.30;;;;;;;22.79;26.10;97741.77;223470;183;139827;-65
2023/04/24 12:46:53;;;;;;;4.80;3.10;;;;;;;22.72;26.74;97735.84;223423;183;146768;-64
2023/04/24 12:51:56;;;;;;;6.20;3.00;;;;;;;22.68;27.36;97730.38;223336;182;138444;-65
2023/04/24 12:57:00;;;;;;;5.10;3.00;;;;;;;22.56;27.32;97734.71;223405;182;136980;-65
2023/04/24 13:02:03;;;;;;;5.90;3.40;;;;;;;22.47;27.46;97744.31;223463;215;148009;-65
2023/04/24 13:07:06;;;;;;;9.50;3.80;;;;;;;22.28;28.71;97757.16;223350;183;138220;-64
2023/04/24 13:12:10;;;;;;;9.70;3.80;;;;;;;21.95;30.72;97760.59;223439;182;136538;-64
2023/04/24 13:17:14;;;;;;;34.20;26.40;;;;;;;21.58;31.76;97760.63;223450;183;147397;-64
2023/04/24 13:25:34;;;;;;;6.70;3.80;;;;;;;21.01;33.35;97766.56;220137;192;687536;-67
2023/04/24 13:30:38;;;;;;;11.30;4.10;;;;;;;20.69;34.48;97765.90;223291;183;136113;-64
2023/04/24 13:35:41;;;;;;;12.00;4.50;;;;;;;20.47;35.27;97773.55;223285;183;143983;-64
2023/04/24 13:40:44;;;;;;;7.50;4.10;;;;;;;20.28;36.25;97776.38;223369;184;138237;-67
2023/04/24 13:45:47;;;;;;;8.70;4.30;;;;;;;20.16;36.61;97776.59;223465;183;140083;-65
2023/04/24 13:50:50;;;;;;;9.30;3.90;;;;;;;20.06;37.12;97779.16;223460;183;144139;-64
2023/04/24 13:55:54;;;;;;;5.70;3.10;;;;;;;19.98;36.73;97787.64;223396;183;140061;-64
2023/04/24 14:00:57;;;;;;;6.20;3.10;;;;;;;19.91;36.00;97790.04;223519;183;136417;-63
2023/04/24 14:06:01;;;;;;;6.10;2.80;;;;;;;19.84;35.79;97793.21;223361;185;143819;-65
2023/04/24 14:11:04;;;;;;;5.40;2.60;;;;;;;19.74;35.69;97802.70;223403;183;138813;-63
2023/04/24 14:16:08;;;;;;;7.00;2.90;;;;;;;19.65;36.03;97805.29;223423;183;137030;-64
2023/04/24 14:21:11;;;;;;;4.60;3.10;;;;;;;19.61;36.04;97809.27;223401;184;145080;-62
2023/04/24 14:26:14;;;;;;;5.40;2.30;;;;;;;19.56;36.47;97813.13;223434;184;138412;-67
2023/04/24 14:31:18;;;;;;;5.40;2.50;;;;;;;19.45;36.69;97810.67;223400;184;136484;-63
2023/04/24 14:36:22;;;;;;;76.20;58.60;;;;;;;19.37;37.11;97815.14;223383;182;146500;-63
2023/04/24 14:41:25;;;;;;;8.90;2.90;;;;;;;19.30;37.19;97816.24;221835;184;138405;-65
2023/04/24 14:46:30;;;;;;;4.20;1.90;;;;;;;19.24;37.42;97814.91;223348;183;137024;-63
2023/04/24 14:51:33;;;;;;;7.90;2.10;;;;;;;19.20;37.59;97816.89;223363;183;146674;-64
2023/04/24 14:56:36;;;;;;;5.60;2.50;;;;;;;19.19;38.09;97818.05;223400;183;139260;-65
2023/04/24 15:01:39;;;;;;;4.40;1.70;;;;;;;19.15;38.48;97826.36;222716;184;136545;-63
2023/04/24 15:06:42;;;;;;;2.70;2.20;;;;;;;19.03;39.00;97827.43;223232;183;145366;-64
2023/04/24 15:11:46;;;;;;;3.10;1.80;;;;;;;18.95;39.15;97827.48;223248;183;138906;-63
2023/04/24 15:16:49;;;;;;;5.10;2.30;;;;;;;18.89;39.22;97826.58;223418;183;137596;-64
2023/04/24 15:21:53;;;;;;;4.20;2.10;;;;;;;18.84;39.42;97824.98;223385;184;147217;-63
2023/04/24 15:26:58;;;;;;;7.10;2.80;;;;;;;18.83;39.68;97824.59;223408;183;138485;-65
2023/04/24 15:32:03;;;;;;;3.10;2.40;;;;;;;18.82;39.91;97831.30;223484;183;140655;-64
2023/04/24 15:37:06;;;;;;;2.60;2.10;;;;;;;18.81;40.09;97829.07;223485;183;145316;-64
2023/04/24 15:42:09;;;;;;;5.80;2.50;;;;;;;18.80;40.33;97827.97;223393;182;137682;-63
2023/04/24 15:47:13;;;;;;;3.60;2.20;;;;;;;18.82;40.33;97825.06;223479;184;140141;-63
2023/04/24 15:52:17;;;;;;;9.30;2.60;;;;;;;18.85;40.47;97826.98;223435;183;145771;-65
2023/04/24 15:57:20;;;;;;;7.90;2.40;;;;;;;18.84;40.72;97827.48;223395;184;138587;-65
2023/04/24 16:02:23;;;;;;;8.30;6.10;;;;;;;18.78;41.00;97833.41;223514;183;137026;-66
2023/04/24 16:07:26;;;;;;;12.50;10.20;;;;;;;18.68;41.50;97834.64;223402;184;145919;-65
2023/04/24 16:12:29;;;;;;;3.00;2.50;;;;;;;18.65;41.19;97836.67;223320;183;139116;-65
2023/04/24 16:17:33;;;;;;;4.10;2.30;;;;;;;18.53;41.82;97837.71;223420;183;139306;-64
2023/04/24 16:22:38;;;;;;;3.40;2.10;;;;;;;18.41;42.43;97841.02;223403;184;146564;-64
2023/04/24 16:27:42;;;;;;;;;;;;;;;18.32;42.85;97842.04;222977;184;138156;-65
2023/04/24 16:32:47;;;;;;;2.80;2.10;;;;;;;18.21;43.36;97837.86;223405;183;129080;-64
2023/04/24 16:37:51;;;;;;;3.60;1.80;;;;;;;18.10;43.19;97839.97;223301;183;145445;-66
2023/04/24 16:42:54;;;;;;;2.10;1.80;;;;;;;18.02;43.28;97839.66;223253;183;138868;-66
2023/04/24 16:47:57;;;;;;;4.80;2.10;;;;;;;17.94;43.56;97838.20;223389;183;137279;-64
2023/04/24 17:25:24;;;;;;;4.90;2.50;;;;;;;17.48;45.46;97847.39;221871;193;665985;-66
2023/04/24 17:30:27;;;;;;;6.00;3.10;;;;;;;17.43;45.48;97846.86;223472;184;136515;-66
2023/04/24 17:35:31;;;;;;;4.60;2.60;;;;;;;17.38;45.73;97845.64;223578;183;143485;-65
2023/04/24 17:40:37;;;;;;;4.60;2.70;;;;;;;17.34;45.90;97846.08;223522;184;138136;-64
2023/04/24 17:45:41;;;;;;;4.40;2.60;;;;;;;17.33;46.06;97843.55;223446;183;136020;-63
2023/04/24 17:50:45;;;;;;;3.80;2.90;;;;;;;17.28;46.32;97846.67;223577;182;143834;-64
2023/04/24 17:55:48;;;;;;;54.50;48.10;;;;;;;17.20;46.77;97846.20;223561;183;140151;-63
2023/04/24 18:00:51;;;;;;;5.00;4.20;;;;;;;17.18;47.08;97848.14;223579;183;139935;-62
2023/04/24 18:05:54;;;;;;;7.20;3.60;;;;;;;17.12;47.03;97854.93;223589;183;144002;-64
2023/04/24 18:10:57;;;;;;;4.00;3.20;;;;;;;17.05;47.43;97864.31;223463;182;138579;-63
2023/04/24 20:25:36;;;;;;;8.30;4.80;;;;;;;16.17;52.50;97874.09;221841;193;676970;-71
2023/04/24 20:30:40;;;;;;;9.00;5.20;;;;;;;16.09;52.73;97874.04;223427;184;136983;-71
2023/04/24 20:35:43;;;;;;;5.70;4.60;;;;;;;16.06;52.88;97878.77;223543;184;143658;-71
2023/04/24 20:40:48;;;;;;;6.20;4.50;;;;;;;16.04;53.02;97880.42;223328;183;138455;-71
2023/04/24 20:45:54;;;;;;;7.00;4.60;;;;;;;16.05;53.13;97878.20;223419;183;136481;-74
2023/04/24 20:50:58;;;;;;;5.90;4.40;;;;;;;16.04;53.10;97876.89;223522;184;144111;-70
2023/04/24 20:56:02;;;;;;;6.80;5.00;;;;;;;15.98;53.37;97876.19;223635;181;138949;-70
2023/04/24 21:01:05;;;;;;;7.40;5.10;;;;;;;15.98;53.47;97875.92;223463;182;136061;-71
2023/04/24 21:06:10;;;;;;;8.30;5.10;;;;;;;16.01;53.47;97874.34;221939;180;143508;-72
2023/04/24 21:11:13;;;;;;;8.30;5.10;;;;;;;16.01;53.41;97873.97;223638;182;139069;-77
2023/04/24 21:16:17;;;;;;;8.20;5.40;;;;;;;16.01;53.56;97871.45;223560;182;136611;-73
2023/04/24 21:21:20;;;;;;;10.00;6.40;;;;;;;16.00;53.56;97875.87;223710;182;145472;-74
2023/04/24 21:26:25;;;;;;;8.60;6.30;;;;;;;15.98;53.75;97872.98;223663;182;139276;-73
2023/04/24 21:31:28;;;;;;;9.20;6.30;;;;;;;15.90;54.01;97874.70;223665;182;136445;-73
2023/04/24 21:36:34;;;;;;;9.70;6.90;;;;;;;15.90;54.23;97869.56;222349;181;146123;-72
2023/04/24 21:41:38;;;;;;;9.90;7.80;;;;;;;15.92;54.33;97868.59;223601;183;138131;-72
2023/04/24 21:46:42;;;;;;;10.60;8.20;;;;;;;15.87;54.61;97863.80;223601;181;136524;-72
2023/04/24 21:51:46;;;;;;;13.80;8.80;;;;;;;15.74;55.05;97864.39;223546;182;146278;-72
2023/04/24 21:56:49;;;;;;;13.50;9.20;;;;;;;15.71;55.11;97862.92;223634;181;138768;-71
2023/04/24 22:01:53;;;;;;;13.30;10.00;;;;;;;15.71;55.36;97859.30;223717;181;136660;-71
2023/04/24 22:06:56;;;;;;;13.60;10.40;;;;;;;15.70;55.82;97856.55;223679;181;145211;-71
2023/04/24 22:12:00;;;;;;;15.60;11.90;;;;;;;15.65;56.31;97857.77;223826;181;138525;-70
2023/04/24 22:17:03;;;;;;;16.30;12.30;;;;;;;15.63;56.84;97862.84;223715;181;137806;-73
2023/04/24 22:22:07;;;;;;;16.10;12.60;;;;;;;15.56;57.61;97860.84;223629;181;145355;-73
2023/04/24 22:27:10;;;;;;;19.50;14.50;;;;;;;15.52;58.26;97859.29;223641;181;138952;-73
2023/04/24 22:32:13;;;;;;;20.80;16.50;;;;;;;15.44;59.53;97860.77;223670;181;136740;-73
2023/04/24 22:37:17;;;;;;;21.10;16.70;;;;;;;15.33;60.52;97859.93;223709;181;145769;-72
2023/04/24 22:42:20;;;;;;;21.10;17.70;;;;;;;15.23;61.58;97860.42;222889;181;139135;-75
2023/04/24 22:47:23;;;;;;;22.20;18.30;;;;;;;15.15;62.24;97858.67;222932;181;136669;-74
2023/04/24 22:52:27;;;;;;;20.30;16.50;;;;;;;15.13;62.88;97857.41;223701;178;144979;-74
2023/04/24 22:57:31;;;;;;;21.20;17.90;;;;;;;15.17;63.28;97859.09;223688;181;138384;-73
2023/04/24 23:02:34;;;;;;;24.10;19.00;;;;;;;15.17;63.69;97855.23;223670;181;137970;-73
2023/04/24 23:07:38;;;;;;;20.50;17.40;;;;;;;15.11;64.39;97848.55;223600;181;145475;-73
2023/04/24 23:12:42;;;;;;;20.30;17.50;;;;;;;15.08;64.84;97842.96;223672;182;139164;-73
2023/04/24 23:17:45;;;;;;;18.80;16.50;;;;;;;15.06;65.37;97841.54;223699;182;136722;-71
2023/04/24 23:22:49;;;;;;;21.70;16.90;;;;;;;14.99;65.87;97839.08;223589;181;145664;-71
2023/04/24 23:27:53;;;;;;;19.10;15.80;;;;;;;14.91;66.37;97835.36;223770;181;258113;-72
2023/04/24 23:32:56;;;;;;;16.10;14.00;;;;;;;14.87;66.77;97833.08;223701;181;137986;-72
2023/04/24 23:38:00;;;;;;;16.50;14.70;;;;;;;14.87;66.96;97831.11;223772;181;145931;-72
2023/04/24 23:43:04;;;;;;;16.90;14.10;;;;;;;14.86;67.30;97827.98;223758;181;138423;-72
2023/04/24 23:48:10;;;;;;;18.10;15.80;;;;;;;14.85;67.59;97828.61;223763;182;136954;-72
2023/04/24 23:53:13;;;;;;;21.90;16.60;;;;;;;14.84;67.82;97825.13;223705;181;146196;-72
2023/04/24 23:58:16;;;;;;;18.30;15.50;;;;;;;14.82;68.08;97818.17;223886;182;138492;-72
